createdAt,value
2023-02-08T00:00:48.682Z,16.72
2023-02-08T00:03:14.995Z,16.69
2023-02-08T00:05:41.265Z,16.64
2023-02-08T00:08:07.653Z,16.54
2023-02-08T00:10:34.318Z,16.45
2023-02-08T00:13:00.687Z,16.38
2023-02-08T00:15:30.213Z,16.34
2023-02-08T00:17:56.498Z,16.30
2023-02-08T00:20:22.850Z,16.28
2023-02-08T00:22:49.213Z,16.25
2023-02-08T00:25:15.956Z,16.21
2023-02-08T00:27:42.302Z,16.19
2023-02-08T00:30:08.551Z,16.15
2023-02-08T00:32:35.271Z,16.11
2023-02-08T00:35:02.303Z,16.04
2023-02-08T00:37:29.326Z,15.99
2023-02-08T00:39:55.751Z,15.93
2023-02-08T00:42:22.048Z,15.88
2023-02-08T00:44:48.420Z,15.85
2023-02-08T00:47:17.894Z,15.82
2023-02-08T00:49:47.041Z,15.77
2023-02-08T00:52:13.512Z,15.74
2023-02-08T00:54:39.829Z,15.72
2023-02-08T00:57:06.255Z,15.70
2023-02-08T00:59:32.760Z,15.68
2023-02-08T01:01:59.102Z,15.69
2023-02-08T01:04:25.413Z,15.68
2023-02-08T01:06:51.749Z,15.67
2023-02-08T01:09:18.698Z,15.65
2023-02-08T01:11:44.974Z,15.63
2023-02-08T01:14:11.233Z,15.62
2023-02-08T01:16:38.464Z,15.60
2023-02-08T01:19:04.887Z,15.57
2023-02-08T01:21:31.292Z,15.55
2023-02-08T01:23:58.143Z,15.53
2023-02-08T01:26:24.641Z,15.51
2023-02-08T01:28:50.893Z,15.50
2023-02-08T01:31:17.262Z,15.48
2023-02-08T01:33:44.258Z,15.45
2023-02-08T01:36:10.592Z,15.48
2023-02-08T01:38:36.876Z,15.47
2023-02-08T01:41:03.303Z,15.53
2023-02-08T01:43:29.561Z,15.60
2023-02-08T01:45:55.922Z,15.72
2023-02-08T01:48:22.233Z,15.87
2023-02-08T01:50:48.501Z,16.00
2023-02-08T01:53:14.786Z,16.10
2023-02-08T01:55:41.183Z,16.23
2023-02-08T01:58:10.320Z,16.35
2023-02-08T02:00:36.566Z,16.42
2023-02-08T02:03:02.844Z,16.47
2023-02-08T02:05:29.111Z,16.51
2023-02-08T02:07:56.064Z,16.52
2023-02-08T02:10:23.196Z,16.51
2023-02-08T02:12:50.036Z,16.48
2023-02-08T02:15:16.684Z,16.44
2023-02-08T02:17:43.050Z,16.40
2023-02-08T02:20:09.639Z,16.32
2023-02-08T02:22:36.022Z,16.24
2023-02-08T02:25:02.979Z,16.14
2023-02-08T02:27:29.430Z,16.08
2023-02-08T02:29:56.059Z,16.03
2023-02-08T02:32:22.359Z,16.00
2023-02-08T02:34:48.607Z,15.98
2023-02-08T02:37:14.916Z,15.94
2023-02-08T02:39:41.194Z,15.90
2023-02-08T02:42:08.468Z,15.85
2023-02-08T02:44:34.945Z,15.78
2023-02-08T02:47:01.370Z,15.74
2023-02-08T02:49:27.949Z,15.69
2023-02-08T02:51:54.210Z,15.64
2023-02-08T02:54:20.513Z,15.61
2023-02-08T02:56:46.858Z,15.56
2023-02-08T02:59:13.267Z,15.52
2023-02-08T03:01:42.369Z,15.47
2023-02-08T03:04:08.686Z,15.44
2023-02-08T03:06:35.025Z,15.39
2023-02-08T03:09:01.273Z,15.34
2023-02-08T03:11:28.243Z,15.31
2023-02-08T03:13:54.573Z,15.27
2023-02-08T03:16:21.267Z,15.25
2023-02-08T03:18:47.586Z,15.23
2023-02-08T03:21:13.880Z,15.21
2023-02-08T03:23:41.119Z,15.18
2023-02-08T03:26:08.744Z,15.18
2023-02-08T03:28:35.832Z,15.18
2023-02-08T03:31:02.273Z,15.16
2023-02-08T03:33:28.614Z,15.17
2023-02-08T03:35:54.988Z,15.24
2023-02-08T03:38:21.276Z,15.31
2023-02-08T03:40:47.533Z,15.43
2023-02-08T03:43:13.822Z,15.57
2023-02-08T03:45:40.085Z,15.69
2023-02-08T03:48:06.356Z,15.79
2023-02-08T03:50:32.657Z,15.92
2023-02-08T03:52:59.249Z,16.06
2023-02-08T03:55:25.499Z,16.17
2023-02-08T03:57:51.826Z,16.24
2023-02-08T04:00:18.183Z,16.31
2023-02-08T04:02:44.964Z,16.34
2023-02-08T04:05:11.265Z,16.34
2023-02-08T04:07:37.608Z,16.33
2023-02-08T04:10:04.597Z,16.30
2023-02-08T04:12:31.207Z,16.28
2023-02-08T04:14:58.019Z,16.26
2023-02-08T04:17:24.302Z,16.20
2023-02-08T04:19:50.639Z,16.13
2023-02-08T04:22:16.987Z,16.08
2023-02-08T04:24:43.333Z,16.04
2023-02-08T04:27:09.608Z,15.99
2023-02-08T04:29:35.865Z,15.93
2023-02-08T04:32:02.111Z,15.91
2023-02-08T04:34:28.561Z,15.87
2023-02-08T04:36:54.806Z,15.82
2023-02-08T04:39:21.049Z,15.76
2023-02-08T04:41:48.130Z,15.71
2023-02-08T04:44:14.476Z,15.67
2023-02-08T04:46:40.816Z,15.63
2023-02-08T04:49:08.291Z,15.60
2023-02-08T04:51:34.574Z,15.57
2023-02-08T04:54:01.647Z,15.55
2023-02-08T04:56:28.417Z,15.51
2023-02-08T04:58:54.704Z,15.48
2023-02-08T05:01:24.032Z,15.46
2023-02-08T05:03:50.416Z,15.44
2023-02-08T05:06:17.314Z,15.40
2023-02-08T05:08:43.621Z,15.39
2023-02-08T05:11:10.589Z,15.37
2023-02-08T05:13:37.558Z,15.35
2023-02-08T05:16:03.948Z,15.34
2023-02-08T05:18:30.412Z,15.33
2023-02-08T05:20:56.924Z,15.31
2023-02-08T05:23:23.907Z,15.29
2023-02-08T05:25:50.297Z,15.28
2023-02-08T05:28:16.648Z,15.27
2023-02-08T05:30:43.374Z,15.24
2023-02-08T05:33:09.747Z,15.24
2023-02-08T05:35:36.098Z,15.22
2023-02-08T05:38:02.405Z,15.26
2023-02-08T05:40:29.013Z,15.27
2023-02-08T05:42:55.620Z,15.30
2023-02-08T05:45:21.990Z,15.44
2023-02-08T05:47:48.248Z,15.57
2023-02-08T05:50:15.747Z,15.72
2023-02-08T05:52:42.007Z,15.87
2023-02-08T05:55:08.477Z,16.00
2023-02-08T05:57:36.027Z,16.07
2023-02-08T06:00:02.359Z,16.19
2023-02-08T06:02:28.625Z,16.29
2023-02-08T06:04:54.888Z,16.37
2023-02-08T06:07:21.228Z,16.43
2023-02-08T06:09:48.597Z,16.46
2023-02-08T06:12:14.996Z,16.44
2023-02-08T06:14:41.297Z,16.45
2023-02-08T06:17:07.786Z,16.42
2023-02-08T06:19:34.128Z,16.41
2023-02-08T06:22:00.388Z,16.38
2023-02-08T06:24:26.812Z,16.36
2023-02-08T06:26:53.123Z,16.36
2023-02-08T06:29:19.375Z,16.35
2023-02-08T06:31:46.002Z,16.34
2023-02-08T06:34:13.202Z,16.30
2023-02-08T06:36:39.499Z,16.26
2023-02-08T06:39:05.856Z,16.22
2023-02-08T06:41:32.285Z,16.21
2023-02-08T06:43:59.122Z,16.17
2023-02-08T06:46:25.360Z,16.16
2023-02-08T06:48:51.680Z,16.12
2023-02-08T06:51:18.004Z,16.09
2023-02-08T06:53:44.585Z,16.06
2023-02-08T06:56:11.281Z,16.03
2023-02-08T06:58:37.641Z,16.00
2023-02-08T07:01:04.048Z,15.98
2023-02-08T07:03:31.170Z,15.98
2023-02-08T07:06:04.598Z,15.95
2023-02-08T07:08:32.063Z,15.94
2023-02-08T07:10:58.336Z,15.94
2023-02-08T07:13:24.623Z,15.94
2023-02-08T07:15:50.946Z,15.93
2023-02-08T07:18:17.550Z,15.94
2023-02-08T07:20:44.988Z,15.97
2023-02-08T07:23:11.270Z,16.06
2023-02-08T07:25:38.403Z,16.11
2023-02-08T07:28:05.150Z,16.19
2023-02-08T07:30:32.030Z,16.33
2023-02-08T07:32:58.992Z,16.45
2023-02-08T07:35:25.366Z,16.54
2023-02-08T07:37:51.693Z,16.63
2023-02-08T07:40:18.214Z,16.70
2023-02-08T07:42:44.685Z,16.78
2023-02-08T07:45:11.126Z,16.85
2023-02-08T07:47:37.383Z,16.92
2023-02-08T07:50:03.675Z,16.99
2023-02-08T07:52:30.067Z,17.06
2023-02-08T07:54:56.440Z,17.13
2023-02-08T07:57:23.002Z,17.20
2023-02-08T07:59:49.892Z,17.26
2023-02-08T08:02:16.987Z,17.33
2023-02-08T08:04:43.279Z,17.39
2023-02-08T08:07:09.664Z,17.46
2023-02-08T08:09:35.929Z,17.51
2023-02-08T08:12:02.998Z,17.56
2023-02-08T08:14:29.845Z,17.62
2023-02-08T08:16:56.183Z,17.68
2023-02-08T08:19:22.591Z,17.74
2023-02-08T08:21:49.038Z,17.81
2023-02-08T08:24:16.140Z,17.74
2023-02-08T08:26:42.363Z,17.62
2023-02-08T08:29:08.805Z,17.57
2023-02-08T08:31:35.189Z,17.58
2023-02-08T08:34:01.636Z,17.58
2023-02-08T08:36:27.920Z,17.49
2023-02-08T08:38:54.167Z,17.43
2023-02-08T08:41:20.522Z,17.45
2023-02-08T08:43:46.825Z,17.47
2023-02-08T08:46:13.451Z,17.53
2023-02-08T08:48:40.284Z,17.57
2023-02-08T08:51:06.597Z,17.71
2023-02-08T08:53:33.116Z,17.95
2023-02-08T08:55:59.378Z,18.15
2023-02-08T08:58:27.294Z,18.14
2023-02-08T09:00:53.670Z,18.14
2023-02-08T09:03:20.546Z,18.18
2023-02-08T09:05:46.994Z,18.16
2023-02-08T09:08:13.395Z,18.17
2023-02-08T09:10:41.970Z,18.10
2023-02-08T09:13:08.515Z,18.01
2023-02-08T09:15:34.839Z,17.98
2023-02-08T09:18:01.404Z,17.99
2023-02-08T09:20:28.326Z,18.04
2023-02-08T09:22:54.708Z,18.07
2023-02-08T09:25:20.994Z,18.13
2023-02-08T09:27:47.336Z,18.18
2023-02-08T09:30:13.907Z,18.22
2023-02-08T09:32:40.270Z,18.27
2023-02-08T09:35:06.701Z,18.31
2023-02-08T09:37:33.816Z,18.36
2023-02-08T09:40:00.632Z,18.40
2023-02-08T09:42:28.272Z,18.44
2023-02-08T09:44:55.418Z,18.48
2023-02-08T09:47:21.725Z,18.51
2023-02-08T09:49:47.996Z,18.55
2023-02-08T09:52:14.345Z,18.60
2023-02-08T09:54:41.189Z,18.64
2023-02-08T09:57:08.571Z,18.69
2023-02-08T09:59:34.964Z,18.73
2023-02-08T10:02:01.430Z,18.77
2023-02-08T10:04:27.787Z,18.81
2023-02-08T10:06:54.129Z,18.84
2023-02-08T10:09:20.463Z,18.86
2023-02-08T10:11:46.830Z,18.90
2023-02-08T10:14:13.112Z,18.93
2023-02-08T10:16:39.482Z,18.96
2023-02-08T10:19:06.058Z,18.98
2023-02-08T10:21:32.361Z,19.01
2023-02-08T10:23:58.895Z,19.03
2023-02-08T10:26:25.580Z,19.06
2023-02-08T10:31:36.093Z,19.12
2023-02-08T10:34:02.471Z,19.13
2023-02-08T10:36:28.849Z,19.16
2023-02-08T10:38:55.158Z,19.17
2023-02-08T10:41:21.469Z,19.19
2023-02-08T10:43:47.883Z,19.21
2023-02-08T10:46:14.194Z,19.22
2023-02-08T10:48:40.531Z,19.26
2023-02-08T10:51:06.815Z,19.29
2023-02-08T10:53:33.744Z,19.31
2023-02-08T10:56:00.101Z,19.34
2023-02-08T10:58:26.416Z,19.37
2023-02-08T11:00:54.003Z,19.39
2023-02-08T11:03:20.903Z,19.43
2023-02-08T11:05:50.418Z,19.46
2023-02-08T11:08:16.920Z,19.48
2023-02-08T11:10:43.417Z,19.50
2023-02-08T11:13:09.671Z,19.53
2023-02-08T11:15:35.958Z,19.57
2023-02-08T11:18:02.306Z,19.60
2023-02-08T11:20:28.565Z,19.63
2023-02-08T11:22:54.882Z,19.65
2023-02-08T11:25:21.177Z,19.66
2023-02-08T11:27:47.552Z,19.68
2023-02-08T11:30:13.850Z,19.71
2023-02-08T11:32:40.402Z,19.72
2023-02-08T11:35:06.823Z,19.74
2023-02-08T11:37:33.236Z,19.75
2023-02-08T11:40:01.440Z,19.76
2023-02-08T11:42:27.918Z,19.76
2023-02-08T11:44:54.193Z,19.77
2023-02-08T11:47:21.618Z,19.77
2023-02-08T11:49:48.699Z,19.79
2023-02-08T11:52:16.152Z,19.79
2023-02-08T11:54:42.465Z,19.81
2023-02-08T11:57:12.211Z,19.81
2023-02-08T11:59:38.568Z,19.81
2023-02-08T12:02:04.892Z,19.82
2023-02-08T12:04:31.299Z,19.82
2023-02-08T12:07:00.139Z,19.83
2023-02-08T12:09:26.474Z,19.82
2023-02-08T12:11:52.856Z,19.82
2023-02-08T12:14:19.170Z,19.83
2023-02-08T12:16:45.750Z,19.84
2023-02-08T12:19:12.055Z,19.85
2023-02-08T12:21:38.476Z,19.84
2023-02-08T12:24:05.093Z,19.85
2023-02-08T12:26:31.498Z,19.83
2023-02-08T12:28:58.764Z,19.82
2023-02-08T12:31:26.247Z,19.84
2023-02-08T12:33:52.832Z,19.82
2023-02-08T12:36:19.287Z,19.82
2023-02-08T12:38:45.625Z,19.82
2023-02-08T12:41:12.052Z,19.82
2023-02-08T12:43:38.546Z,19.83
2023-02-08T12:46:05.765Z,19.82
2023-02-08T12:48:32.321Z,19.81
2023-02-08T12:50:58.828Z,19.80
2023-02-08T12:53:25.969Z,19.79
2023-02-08T12:58:43.062Z,19.76
2023-02-08T13:01:09.701Z,19.77
2023-02-08T13:03:37.004Z,19.76
2023-02-08T13:06:04.236Z,19.76
2023-02-08T13:08:31.037Z,19.75
2023-02-08T13:10:57.303Z,19.77
2023-02-08T13:13:23.558Z,19.76
2023-02-08T13:15:49.890Z,19.77
2023-02-08T13:18:16.225Z,19.77
2023-02-08T13:20:43.455Z,19.78
2023-02-08T13:23:10.653Z,19.79
2023-02-08T13:25:36.983Z,19.80
2023-02-08T13:30:57.097Z,19.82
2023-02-08T13:33:28.464Z,19.78
2023-02-08T13:36:02.868Z,19.72
2023-02-08T13:41:24.402Z,19.64
2023-02-08T13:44:03.622Z,19.60
2023-02-08T13:46:30.056Z,19.56
2023-02-08T13:48:56.790Z,19.54
2023-02-08T13:51:23.366Z,19.50
2023-02-08T13:53:49.672Z,19.46
2023-02-08T13:56:16.253Z,19.44
2023-02-08T13:58:42.443Z,19.41
2023-02-08T14:01:08.779Z,19.38
2023-02-08T14:03:34.988Z,19.35
2023-02-08T14:06:01.386Z,19.30
2023-02-08T14:08:28.212Z,19.27
2023-02-08T14:10:54.903Z,19.24
2023-02-08T14:13:21.298Z,19.20
2023-02-08T14:15:47.737Z,19.15
2023-02-08T14:18:14.206Z,19.12
2023-02-08T14:20:40.572Z,19.08
2023-02-08T14:23:06.874Z,19.07
2023-02-08T14:25:33.238Z,19.03
2023-02-08T14:27:59.533Z,18.99
2023-02-08T14:30:27.450Z,18.95
2023-02-08T14:32:53.713Z,18.91
2023-02-08T14:35:20.052Z,18.87
2023-02-08T14:37:46.421Z,18.84
2023-02-08T14:40:12.698Z,18.80
2023-02-08T14:42:38.944Z,18.78
2023-02-08T14:45:06.002Z,18.74
2023-02-08T14:47:33.373Z,18.71
2023-02-08T14:49:59.820Z,18.67
2023-02-08T14:52:29.445Z,18.63
2023-02-08T14:54:55.766Z,18.58
2023-02-08T14:57:22.360Z,18.54
2023-02-08T14:59:49.635Z,18.51
2023-02-08T15:02:16.212Z,18.48
2023-02-08T15:04:43.055Z,18.45
2023-02-08T15:07:09.296Z,18.41
2023-02-08T15:09:35.613Z,18.38
2023-02-08T15:12:02.804Z,18.35
2023-02-08T15:14:29.110Z,18.32
2023-02-08T15:16:55.476Z,18.28
2023-02-08T15:19:21.855Z,18.25
2023-02-08T15:21:49.012Z,18.22
2023-02-08T15:24:15.303Z,18.19
2023-02-08T15:26:41.972Z,18.16
2023-02-08T15:29:10.383Z,18.14
2023-02-08T15:31:37.014Z,18.10
2023-02-08T15:34:03.599Z,18.06
2023-02-08T15:36:31.837Z,18.03
2023-02-08T15:38:58.744Z,17.99
2023-02-08T15:41:25.088Z,17.97
2023-02-08T15:43:51.445Z,17.93
2023-02-08T15:46:17.841Z,17.89
2023-02-08T15:48:44.218Z,17.87
2023-02-08T15:51:10.488Z,17.83
2023-02-08T15:53:36.883Z,17.80
2023-02-08T15:56:03.224Z,17.77
2023-02-08T15:58:33.024Z,17.74
2023-02-08T16:01:00.717Z,17.70
2023-02-08T16:03:27.190Z,17.67
2023-02-08T16:05:53.606Z,17.64
2023-02-08T16:08:20.063Z,17.61
2023-02-08T16:10:46.494Z,17.61
2023-02-08T16:13:12.803Z,17.61
2023-02-08T16:15:39.144Z,17.61
2023-02-08T16:18:05.568Z,17.62
2023-02-08T16:20:42.407Z,17.63
2023-02-08T16:23:08.816Z,17.63
2023-02-08T16:25:35.356Z,17.63
2023-02-08T16:28:01.731Z,17.65
2023-02-08T16:30:28.176Z,17.65
2023-02-08T16:32:54.590Z,17.66
2023-02-08T16:35:20.889Z,17.66
2023-02-08T16:37:47.306Z,17.65
2023-02-08T16:40:14.404Z,17.65
2023-02-08T16:42:41.105Z,17.64
2023-02-08T16:45:07.438Z,17.58
2023-02-08T16:47:33.757Z,17.63
2023-02-08T16:50:00.031Z,17.63
2023-02-08T16:52:26.304Z,17.62
2023-02-08T16:54:52.616Z,17.62
2023-02-08T16:57:19.144Z,17.61
2023-02-08T16:59:45.461Z,17.61
2023-02-08T17:02:12.835Z,17.60
2023-02-08T17:04:39.172Z,17.58
2023-02-08T17:07:05.726Z,17.59
2023-02-08T17:09:32.167Z,17.57
2023-02-08T17:11:58.459Z,17.58
2023-02-08T17:14:25.641Z,17.56
2023-02-08T17:16:51.951Z,17.55
2023-02-08T17:19:18.256Z,17.53
2023-02-08T17:21:44.557Z,17.53
2023-02-08T17:24:10.879Z,17.52
2023-02-08T17:26:37.126Z,17.50
2023-02-08T17:29:03.533Z,17.51
2023-02-08T17:31:30.083Z,17.50
2023-02-08T17:33:58.738Z,17.49
2023-02-08T17:36:25.127Z,17.48
2023-02-08T17:38:53.697Z,17.47
2023-02-08T17:41:23.044Z,17.46
2023-02-08T17:43:49.331Z,17.44
2023-02-08T17:46:15.775Z,17.42
2023-02-08T17:48:42.376Z,17.40
2023-02-08T17:51:08.652Z,17.39
2023-02-08T17:53:34.959Z,17.36
2023-02-08T17:56:01.650Z,17.33
2023-02-08T17:58:28.009Z,17.31
2023-02-08T18:00:54.583Z,17.28
2023-02-08T18:03:20.902Z,17.24
2023-02-08T18:05:47.209Z,17.21
2023-02-08T18:08:13.491Z,17.18
2023-02-08T18:10:40.513Z,17.15
2023-02-08T18:13:07.073Z,17.14
2023-02-08T18:15:33.613Z,17.11
2023-02-08T18:18:00.764Z,17.09
2023-02-08T18:20:27.075Z,17.08
2023-02-08T18:22:53.385Z,17.07
2023-02-08T18:25:19.695Z,17.07
2023-02-08T18:27:45.990Z,17.04
2023-02-08T18:30:13.037Z,17.04
2023-02-08T18:32:39.316Z,17.04
2023-02-08T18:35:05.665Z,17.04
2023-02-08T18:37:32.337Z,17.03
2023-02-08T18:39:58.783Z,17.02
2023-02-08T18:42:25.052Z,17.02
2023-02-08T18:44:51.678Z,17.01
2023-02-08T18:47:18.032Z,17.01
2023-02-08T18:49:44.325Z,17.00
2023-02-08T18:52:10.627Z,17.00
2023-02-08T18:54:37.070Z,16.98
2023-02-08T18:57:05.527Z,16.97
2023-02-08T18:59:31.789Z,16.97
2023-02-08T19:01:58.794Z,16.96
2023-02-08T19:04:25.133Z,16.94
2023-02-08T19:06:51.392Z,16.93
2023-02-08T19:09:21.526Z,16.94
2023-02-08T19:11:48.927Z,16.93
2023-02-08T19:14:16.062Z,16.91
2023-02-08T19:16:42.288Z,16.89
2023-02-08T19:19:08.618Z,16.88
2023-02-08T19:21:39.003Z,16.86
2023-02-08T19:24:05.586Z,16.83
2023-02-08T19:26:31.966Z,16.82
2023-02-08T19:28:58.447Z,16.81
2023-02-08T19:31:24.860Z,16.80
2023-02-08T19:33:51.369Z,16.79
2023-02-08T19:36:18.613Z,16.79
2023-02-08T19:38:45.407Z,16.78
2023-02-08T19:41:11.726Z,16.79
2023-02-08T19:43:38.067Z,16.78
2023-02-08T19:46:04.372Z,16.78
2023-02-08T19:48:30.735Z,16.76
2023-02-08T19:50:56.984Z,16.77
2023-02-08T19:53:23.254Z,16.76
2023-02-08T19:55:49.582Z,16.75
2023-02-08T19:58:16.061Z,16.75
2023-02-08T20:00:42.419Z,16.73
2023-02-08T20:03:20.805Z,16.72
2023-02-08T20:05:47.626Z,16.73
2023-02-08T20:08:14.148Z,16.72
2023-02-08T20:10:41.378Z,16.71
2023-02-08T20:13:07.660Z,16.70
2023-02-08T20:15:34.067Z,16.69
2023-02-08T20:18:00.362Z,16.68
2023-02-08T20:20:26.715Z,16.68
2023-02-08T20:22:53.885Z,16.68
2023-02-08T20:25:20.185Z,16.68
2023-02-08T20:27:46.507Z,16.65
2023-02-08T20:30:12.786Z,16.64
2023-02-08T20:32:39.059Z,16.64
2023-02-08T20:35:06.378Z,16.62
2023-02-08T20:37:32.663Z,16.62
2023-02-08T20:39:59.626Z,16.58
2023-02-08T20:42:25.904Z,16.58
2023-02-08T20:44:52.141Z,16.57
2023-02-08T20:47:19.095Z,16.55
2023-02-08T20:49:45.992Z,16.55
2023-02-08T20:52:13.006Z,16.53
2023-02-08T20:54:39.300Z,16.51
2023-02-08T20:57:05.981Z,16.51
2023-02-08T20:59:32.431Z,16.50
2023-02-08T21:02:00.138Z,16.49
2023-02-08T21:04:26.686Z,16.47
2023-02-08T21:06:53.795Z,16.47
2023-02-08T21:09:20.160Z,16.47
2023-02-08T21:11:46.461Z,16.45
2023-02-08T21:14:12.776Z,16.44
2023-02-08T21:16:40.151Z,16.43
2023-02-08T21:19:07.737Z,16.43
2023-02-08T21:21:34.009Z,16.43
2023-02-08T21:24:00.270Z,16.42
2023-02-08T21:26:26.966Z,16.41
2023-02-08T21:28:53.338Z,16.40
2023-02-08T21:31:19.926Z,16.39
2023-02-08T21:33:46.331Z,16.39
2023-02-08T21:36:12.631Z,16.38
2023-02-08T21:38:40.356Z,16.38
2023-02-08T21:41:06.632Z,16.38
2023-02-08T21:43:32.890Z,16.39
2023-02-08T21:45:59.253Z,16.39
2023-02-08T21:48:25.677Z,16.39
2023-02-08T21:50:52.958Z,16.38
2023-02-08T21:53:19.370Z,16.39
2023-02-08T21:55:46.368Z,16.40
2023-02-08T21:58:12.708Z,16.39
2023-02-08T22:00:39.056Z,16.39
2023-02-08T22:03:06.067Z,16.38
2023-02-08T22:05:32.352Z,16.38
2023-02-08T22:07:59.088Z,16.39
2023-02-08T22:10:25.438Z,16.37
2023-02-08T22:12:52.053Z,16.36
2023-02-08T22:15:18.390Z,16.36
2023-02-08T22:17:45.414Z,16.35
2023-02-08T22:20:11.807Z,16.34
2023-02-08T22:22:38.134Z,16.33
2023-02-08T22:25:04.470Z,16.31
2023-02-08T22:27:30.834Z,16.29
2023-02-08T22:29:57.879Z,16.28
2023-02-08T22:32:24.292Z,16.27
2023-02-08T22:34:51.509Z,16.26
2023-02-08T22:37:18.632Z,16.25
2023-02-08T22:39:44.979Z,16.25
2023-02-08T22:42:11.230Z,16.25
2023-02-08T22:44:38.675Z,16.24
2023-02-08T22:47:04.963Z,16.23
2023-02-08T22:49:31.257Z,16.22
2023-02-08T22:51:58.949Z,16.21
2023-02-08T22:54:25.193Z,16.19
2023-02-08T22:56:51.446Z,16.19
2023-02-08T22:59:18.169Z,16.16
2023-02-08T23:01:44.555Z,16.14
2023-02-08T23:04:10.870Z,16.12
2023-02-08T23:06:37.543Z,16.11
2023-02-08T23:09:03.924Z,16.10
2023-02-08T23:11:30.393Z,16.07
2023-02-08T23:13:56.798Z,16.05
2023-02-08T23:16:23.681Z,16.04
2023-02-08T23:18:50.712Z,16.02
2023-02-08T23:21:17.086Z,15.99
2023-02-08T23:23:43.619Z,15.98
2023-02-08T23:26:09.930Z,15.96
2023-02-08T23:28:36.199Z,15.94
2023-02-08T23:31:02.596Z,15.90
2023-02-08T23:33:29.117Z,15.89
2023-02-08T23:35:55.420Z,15.87
2023-02-08T23:41:06.306Z,15.82
2023-02-08T23:43:33.378Z,15.79
2023-02-08T23:45:59.714Z,15.76
2023-02-08T23:48:26.066Z,15.74
2023-02-08T23:50:52.326Z,15.73
2023-02-08T23:53:21.785Z,15.70
2023-02-08T23:55:48.470Z,15.67
2023-02-08T23:58:17.843Z,15.66
